Terminal Aerodrome Forecast
Issued by NWS

Home | Current Version | Previous Version | Text Only | Print | Product List | Glossary On
Versions: 1 2 3 4 5 6 7 8 9 10 11 12 13 14 15 16
000
FTUS45 KVEF 200500
TAFBIH
TAF
KBIH 200520Z 2006/2106 VRB05KT P6SM SKC
     FM200800 33006KT P6SM SKC
     FM201900 17015G25KT P6SM SCT120
     FM210200 18010KT P6SM SCT120 BKN150=

USA.gov is the U.S. government's official web portal to all federal, state and local government web resources and services.